sensor_id;sensor_type;location;lat;lon;timestamp;P1;durP1;ratioP1;P2;durP2;ratioP2
12840;SDS011;6487;48.626;12.486;2024-03-02T00:01:54;43.97;;;29.33;;
12840;SDS011;6487;48.626;12.486;2024-03-02T00:04:22;40.60;;;29.33;;
12840;SDS011;6487;48.626;12.486;2024-03-02T00:06:51;39.90;;;28.93;;
12840;SDS011;6487;48.626;12.486;2024-03-02T00:09:21;40.33;;;30.13;;
12840;SDS011;6487;48.626;12.486;2024-03-02T00:11:50;41.03;;;29.77;;
12840;SDS011;6487;48.626;12.486;2024-03-02T00:14:18;42.73;;;29.33;;
12840;SDS011;6487;48.626;12.486;2024-03-02T00:16:49;41.83;;;30.47;;
12840;SDS011;6487;48.626;12.486;2024-03-02T00:19:19;41.70;;;29.63;;
12840;SDS011;6487;48.626;12.486;2024-03-02T00:21:47;39.23;;;28.10;;
12840;SDS011;6487;48.626;12.486;2024-03-02T00:24:18;41.23;;;29.30;;
12840;SDS011;6487;48.626;12.486;2024-03-02T00:26:58;38.57;;;28.47;;
12840;SDS011;6487;48.626;12.486;2024-03-02T00:29:27;41.83;;;30.43;;
12840;SDS011;6487;48.626;12.486;2024-03-02T00:31:58;38.13;;;27.93;;
12840;SDS011;6487;48.626;12.486;2024-03-02T00:34:28;40.13;;;27.70;;
12840;SDS011;6487;48.626;12.486;2024-03-02T00:36:57;39.43;;;28.77;;
12840;SDS011;6487;48.626;12.486;2024-03-02T00:39:26;37.07;;;29.90;;
12840;SDS011;6487;48.626;12.486;2024-03-02T00:41:55;39.50;;;28.47;;
12840;SDS011;6487;48.626;12.486;2024-03-02T00:44:25;37.17;;;27.73;;
12840;SDS011;6487;48.626;12.486;2024-03-02T00:46:58;37.83;;;28.00;;
12840;SDS011;6487;48.626;12.486;2024-03-02T00:49:27;37.13;;;28.47;;
12840;SDS011;6487;48.626;12.486;2024-03-02T00:51:58;38.20;;;29.10;;
12840;SDS011;6487;48.626;12.486;2024-03-02T00:54:27;37.50;;;27.97;;
12840;SDS011;6487;48.626;12.486;2024-03-02T00:56:57;36.20;;;27.50;;
12840;SDS011;6487;48.626;12.486;2024-03-02T00:59:25;37.13;;;28.37;;
12840;SDS011;6487;48.626;12.486;2024-03-02T01:01:54;43.10;;;32.20;;
12840;SDS011;6487;48.626;12.486;2024-03-02T01:04:24;42.13;;;31.37;;
12840;SDS011;6487;48.626;12.486;2024-03-02T01:06:52;39.67;;;32.03;;
12840;SDS011;6487;48.626;12.486;2024-03-02T01:09:21;41.40;;;32.60;;
12840;SDS011;6487;48.626;12.486;2024-03-02T01:11:50;39.07;;;31.20;;
12840;SDS011;6487;48.626;12.486;2024-03-02T01:14:18;42.47;;;32.77;;
12840;SDS011;6487;48.626;12.486;2024-03-02T01:16:47;36.67;;;29.43;;
12840;SDS011;6487;48.626;12.486;2024-03-02T01:19:18;42.77;;;32.63;;
12840;SDS011;6487;48.626;12.486;2024-03-02T01:21:48;38.77;;;30.37;;
12840;SDS011;6487;48.626;12.486;2024-03-02T01:24:18;39.17;;;31.17;;
12840;SDS011;6487;48.626;12.486;2024-03-02T01:26:46;39.17;;;29.83;;
12840;SDS011;6487;48.626;12.486;2024-03-02T01:29:14;43.90;;;30.63;;
12840;SDS011;6487;48.626;12.486;2024-03-02T01:31:43;41.23;;;32.00;;
12840;SDS011;6487;48.626;12.486;2024-03-02T01:34:11;40.30;;;31.50;;
12840;SDS011;6487;48.626;12.486;2024-03-02T01:36:40;38.17;;;30.10;;
12840;SDS011;6487;48.626;12.486;2024-03-02T01:39:09;40.40;;;30.97;;
12840;SDS011;6487;48.626;12.486;2024-03-02T01:41:38;41.03;;;31.50;;
12840;SDS011;6487;48.626;12.486;2024-03-02T01:44:06;41.40;;;32.50;;
12840;SDS011;6487;48.626;12.486;2024-03-02T01:46:35;42.67;;;32.00;;
12840;SDS011;6487;48.626;12.486;2024-03-02T01:49:03;40.37;;;30.83;;
12840;SDS011;6487;48.626;12.486;2024-03-02T01:51:32;46.20;;;34.53;;
12840;SDS011;6487;48.626;12.486;2024-03-02T01:54:00;43.77;;;32.60;;
12840;SDS011;6487;48.626;12.486;2024-03-02T01:56:30;43.50;;;32.20;;
12840;SDS011;6487;48.626;12.486;2024-03-02T01:58:58;42.67;;;31.87;;
12840;SDS011;6487;48.626;12.486;2024-03-02T02:01:30;43.50;;;31.50;;
12840;SDS011;6487;48.626;12.486;2024-03-02T02:03:58;42.67;;;31.43;;
12840;SDS011;6487;48.626;12.486;2024-03-02T02:06:27;40.87;;;30.83;;
12840;SDS011;6487;48.626;12.486;2024-03-02T02:08:56;42.00;;;32.10;;
12840;SDS011;6487;48.626;12.486;2024-03-02T02:11:24;39.73;;;30.13;;
12840;SDS011;6487;48.626;12.486;2024-03-02T02:13:54;41.77;;;30.10;;
12840;SDS011;6487;48.626;12.486;2024-03-02T02:16:23;37.90;;;30.07;;
12840;SDS011;6487;48.626;12.486;2024-03-02T02:18:51;36.87;;;27.87;;
12840;SDS011;6487;48.626;12.486;2024-03-02T02:21:23;37.17;;;27.13;;
12840;SDS011;6487;48.626;12.486;2024-03-02T02:23:52;39.97;;;28.67;;
12840;SDS011;6487;48.626;12.486;2024-03-02T02:26:21;37.07;;;27.67;;
12840;SDS011;6487;48.626;12.486;2024-03-02T02:28:49;38.23;;;27.90;;
12840;SDS011;6487;48.626;12.486;2024-03-02T02:31:20;34.97;;;26.83;;
12840;SDS011;6487;48.626;12.486;2024-03-02T02:33:49;39.53;;;27.87;;
12840;SDS011;6487;48.626;12.486;2024-03-02T02:36:17;37.00;;;26.40;;
12840;SDS011;6487;48.626;12.486;2024-03-02T02:38:47;37.90;;;27.07;;
12840;SDS011;6487;48.626;12.486;2024-03-02T02:41:16;34.13;;;24.60;;
12840;SDS011;6487;48.626;12.486;2024-03-02T02:43:48;33.40;;;25.27;;
12840;SDS011;6487;48.626;12.486;2024-03-02T02:46:16;33.00;;;23.43;;
12840;SDS011;6487;48.626;12.486;2024-03-02T02:48:45;33.50;;;25.03;;
12840;SDS011;6487;48.626;12.486;2024-03-02T02:51:20;35.20;;;25.60;;
12840;SDS011;6487;48.626;12.486;2024-03-02T02:53:50;38.60;;;27.87;;
12840;SDS011;6487;48.626;12.486;2024-03-02T02:56:18;33.43;;;25.53;;
12840;SDS011;6487;48.626;12.486;2024-03-02T02:58:46;36.00;;;26.33;;
12840;SDS011;6487;48.626;12.486;2024-03-02T03:01:18;36.33;;;26.77;;
12840;SDS011;6487;48.626;12.486;2024-03-02T03:03:46;36.17;;;26.70;;
12840;SDS011;6487;48.626;12.486;2024-03-02T03:06:15;40.20;;;29.00;;
12840;SDS011;6487;48.626;12.486;2024-03-02T03:08:43;38.57;;;28.10;;
12840;SDS011;6487;48.626;12.486;2024-03-02T03:11:13;41.37;;;29.03;;
12840;SDS011;6487;48.626;12.486;2024-03-02T03:13:44;38.03;;;28.40;;
12840;SDS011;6487;48.626;12.486;2024-03-02T03:16:13;38.17;;;28.43;;
12840;SDS011;6487;48.626;12.486;2024-03-02T03:18:41;39.07;;;26.97;;
12840;SDS011;6487;48.626;12.486;2024-03-02T03:21:10;34.87;;;26.07;;
12840;SDS011;6487;48.626;12.486;2024-03-02T03:23:38;35.43;;;25.17;;
12840;SDS011;6487;48.626;12.486;2024-03-02T03:26:07;34.13;;;25.97;;
12840;SDS011;6487;48.626;12.486;2024-03-02T03:28:36;30.80;;;24.30;;
12840;SDS011;6487;48.626;12.486;2024-03-02T03:31:05;32.80;;;23.57;;
12840;SDS011;6487;48.626;12.486;2024-03-02T03:33:33;32.83;;;25.23;;
12840;SDS011;6487;48.626;12.486;2024-03-02T03:36:02;35.80;;;24.80;;
12840;SDS011;6487;48.626;12.486;2024-03-02T03:38:31;34.23;;;24.53;;
12840;SDS011;6487;48.626;12.486;2024-03-02T03:40:59;36.57;;;25.47;;
12840;SDS011;6487;48.626;12.486;2024-03-02T03:43:30;34.83;;;25.53;;
12840;SDS011;6487;48.626;12.486;2024-03-02T03:46:00;37.80;;;27.13;;
12840;SDS011;6487;48.626;12.486;2024-03-02T03:48:29;35.60;;;25.10;;
12840;SDS011;6487;48.626;12.486;2024-03-02T03:50:59;34.23;;;24.53;;
12840;SDS011;6487;48.626;12.486;2024-03-02T03:53:28;36.30;;;25.47;;
12840;SDS011;6487;48.626;12.486;2024-03-02T03:55:56;37.40;;;27.67;;
12840;SDS011;6487;48.626;12.486;2024-03-02T03:58:25;35.57;;;25.43;;
12840;SDS011;6487;48.626;12.486;2024-03-02T04:00:53;38.63;;;27.27;;
12840;SDS011;6487;48.626;12.486;2024-03-02T04:03:23;36.57;;;27.20;;
12840;SDS011;6487;48.626;12.486;2024-03-02T04:05:56;42.33;;;27.57;;
12840;SDS011;6487;48.626;12.486;2024-03-02T04:08:24;39.20;;;27.53;;
12840;SDS011;6487;48.626;12.486;2024-03-02T04:10:53;37.57;;;27.50;;
12840;SDS011;6487;48.626;12.486;2024-03-02T04:13:21;40.13;;;28.97;;
12840;SDS011;6487;48.626;12.486;2024-03-02T04:15:50;46.13;;;30.53;;
12840;SDS011;6487;48.626;12.486;2024-03-02T04:18:18;40.23;;;28.40;;
12840;SDS011;6487;48.626;12.486;2024-03-02T04:20:48;43.23;;;29.33;;
12840;SDS011;6487;48.626;12.486;2024-03-02T04:23:19;41.17;;;29.13;;
12840;SDS011;6487;48.626;12.486;2024-03-02T04:25:47;44.30;;;30.00;;
12840;SDS011;6487;48.626;12.486;2024-03-02T04:28:16;40.20;;;27.63;;
12840;SDS011;6487;48.626;12.486;2024-03-02T04:30:47;38.60;;;28.07;;
12840;SDS011;6487;48.626;12.486;2024-03-02T04:33:16;39.07;;;26.93;;
12840;SDS011;6487;48.626;12.486;2024-03-02T04:35:44;38.53;;;26.23;;
12840;SDS011;6487;48.626;12.486;2024-03-02T04:38:14;37.83;;;27.73;;
12840;SDS011;6487;48.626;12.486;2024-03-02T04:40:42;39.63;;;28.80;;
12840;SDS011;6487;48.626;12.486;2024-03-02T04:43:11;37.13;;;27.57;;
12840;SDS011;6487;48.626;12.486;2024-03-02T04:45:42;36.73;;;27.27;;
12840;SDS011;6487;48.626;12.486;2024-03-02T04:48:11;38.33;;;27.93;;
12840;SDS011;6487;48.626;12.486;2024-03-02T04:50:40;41.97;;;29.37;;
12840;SDS011;6487;48.626;12.486;2024-03-02T04:53:08;37.80;;;27.63;;
12840;SDS011;6487;48.626;12.486;2024-03-02T04:55:38;39.97;;;29.10;;
12840;SDS011;6487;48.626;12.486;2024-03-02T04:58:21;42.17;;;28.67;;
12840;SDS011;6487;48.626;12.486;2024-03-02T05:00:49;43.10;;;29.73;;
12840;SDS011;6487;48.626;12.486;2024-03-02T05:03:17;41.53;;;29.03;;
12840;SDS011;6487;48.626;12.486;2024-03-02T05:05:46;41.90;;;30.40;;
12840;SDS011;6487;48.626;12.486;2024-03-02T05:08:14;44.57;;;29.50;;
12840;SDS011;6487;48.626;12.486;2024-03-02T05:10:47;41.37;;;30.60;;
12840;SDS011;6487;48.626;12.486;2024-03-02T05:13:16;39.17;;;29.80;;
12840;SDS011;6487;48.626;12.486;2024-03-02T05:15:44;42.13;;;30.70;;
12840;SDS011;6487;48.626;12.486;2024-03-02T05:18:13;48.20;;;31.50;;
12840;SDS011;6487;48.626;12.486;2024-03-02T05:20:41;45.90;;;31.30;;
12840;SDS011;6487;48.626;12.486;2024-03-02T05:23:10;45.53;;;29.47;;
12840;SDS011;6487;48.626;12.486;2024-03-02T05:25:38;41.90;;;30.43;;
12840;SDS011;6487;48.626;12.486;2024-03-02T05:28:08;43.43;;;30.50;;
12840;SDS011;6487;48.626;12.486;2024-03-02T05:30:37;47.63;;;31.50;;
12840;SDS011;6487;48.626;12.486;2024-03-02T05:33:05;44.47;;;31.77;;
12840;SDS011;6487;48.626;12.486;2024-03-02T05:35:34;42.47;;;30.00;;
12840;SDS011;6487;48.626;12.486;2024-03-02T05:38:02;41.03;;;28.97;;
12840;SDS011;6487;48.626;12.486;2024-03-02T05:40:31;44.80;;;28.97;;
12840;SDS011;6487;48.626;12.486;2024-03-02T05:42:59;40.90;;;29.43;;
12840;SDS011;6487;48.626;12.486;2024-03-02T05:45:29;38.80;;;28.37;;
12840;SDS011;6487;48.626;12.486;2024-03-02T05:47:57;36.37;;;28.67;;
12840;SDS011;6487;48.626;12.486;2024-03-02T05:50:26;37.23;;;28.33;;
12840;SDS011;6487;48.626;12.486;2024-03-02T05:52:57;38.13;;;28.57;;
12840;SDS011;6487;48.626;12.486;2024-03-02T05:55:25;40.27;;;27.47;;
12840;SDS011;6487;48.626;12.486;2024-03-02T05:57:54;36.80;;;26.10;;
12840;SDS011;6487;48.626;12.486;2024-03-02T06:00:42;36.17;;;27.23;;
12840;SDS011;6487;48.626;12.486;2024-03-02T06:03:10;33.80;;;25.60;;
12840;SDS011;6487;48.626;12.486;2024-03-02T06:05:39;36.50;;;26.80;;
12840;SDS011;6487;48.626;12.486;2024-03-02T06:08:07;36.03;;;25.90;;
12840;SDS011;6487;48.626;12.486;2024-03-02T06:10:35;34.20;;;25.77;;
12840;SDS011;6487;48.626;12.486;2024-03-02T06:13:04;35.70;;;27.00;;
12840;SDS011;6487;48.626;12.486;2024-03-02T06:15:32;32.00;;;24.93;;
12840;SDS011;6487;48.626;12.486;2024-03-02T06:18:04;39.33;;;26.77;;
12840;SDS011;6487;48.626;12.486;2024-03-02T06:20:34;37.73;;;27.17;;
12840;SDS011;6487;48.626;12.486;2024-03-02T06:23:03;34.43;;;26.13;;
12840;SDS011;6487;48.626;12.486;2024-03-02T06:25:32;33.63;;;26.83;;
12840;SDS011;6487;48.626;12.486;2024-03-02T06:28:00;36.57;;;28.87;;
12840;SDS011;6487;48.626;12.486;2024-03-02T06:30:30;48.30;;;35.23;;
12840;SDS011;6487;48.626;12.486;2024-03-02T06:32:59;54.77;;;41.07;;
12840;SDS011;6487;48.626;12.486;2024-03-02T06:35:29;44.63;;;31.90;;
12840;SDS011;6487;48.626;12.486;2024-03-02T06:37:57;38.83;;;29.77;;
12840;SDS011;6487;48.626;12.486;2024-03-02T06:40:25;36.07;;;27.37;;
12840;SDS011;6487;48.626;12.486;2024-03-02T06:42:54;37.03;;;28.20;;
12840;SDS011;6487;48.626;12.486;2024-03-02T06:45:22;30.10;;;25.43;;
12840;SDS011;6487;48.626;12.486;2024-03-02T06:47:51;26.37;;;22.13;;
12840;SDS011;6487;48.626;12.486;2024-03-02T06:50:19;26.23;;;21.27;;
12840;SDS011;6487;48.626;12.486;2024-03-02T06:52:49;26.80;;;21.43;;
12840;SDS011;6487;48.626;12.486;2024-03-02T06:55:18;23.50;;;20.97;;
12840;SDS011;6487;48.626;12.486;2024-03-02T06:57:49;25.13;;;21.20;;
12840;SDS011;6487;48.626;12.486;2024-03-02T07:00:21;24.13;;;20.10;;
12840;SDS011;6487;48.626;12.486;2024-03-02T07:02:50;23.03;;;19.87;;
12840;SDS011;6487;48.626;12.486;2024-03-02T07:05:19;24.13;;;20.40;;
12840;SDS011;6487;48.626;12.486;2024-03-02T07:07:47;23.03;;;19.37;;
12840;SDS011;6487;48.626;12.486;2024-03-02T07:10:19;22.57;;;20.13;;
12840;SDS011;6487;48.626;12.486;2024-03-02T07:12:48;24.70;;;20.97;;
12840;SDS011;6487;48.626;12.486;2024-03-02T07:15:16;23.37;;;20.63;;
12840;SDS011;6487;48.626;12.486;2024-03-02T07:17:59;23.87;;;19.97;;
12840;SDS011;6487;48.626;12.486;2024-03-02T07:20:30;22.30;;;18.87;;
12840;SDS011;6487;48.626;12.486;2024-03-02T07:23:00;22.07;;;19.57;;
12840;SDS011;6487;48.626;12.486;2024-03-02T07:25:28;23.00;;;19.43;;
12840;SDS011;6487;48.626;12.486;2024-03-02T07:27:59;21.77;;;19.40;;
12840;SDS011;6487;48.626;12.486;2024-03-02T07:30:28;23.10;;;20.30;;
12840;SDS011;6487;48.626;12.486;2024-03-02T07:32:59;25.77;;;21.40;;
12840;SDS011;6487;48.626;12.486;2024-03-02T07:35:33;24.13;;;20.10;;
12840;SDS011;6487;48.626;12.486;2024-03-02T07:38:03;22.30;;;19.47;;
12840;SDS011;6487;48.626;12.486;2024-03-02T07:40:32;25.27;;;21.20;;
12840;SDS011;6487;48.626;12.486;2024-03-02T07:43:00;24.70;;;21.27;;
12840;SDS011;6487;48.626;12.486;2024-03-02T07:45:29;26.20;;;23.33;;
12840;SDS011;6487;48.626;12.486;2024-03-02T07:48:00;26.23;;;23.33;;
12840;SDS011;6487;48.626;12.486;2024-03-02T07:50:30;26.93;;;21.30;;
12840;SDS011;6487;48.626;12.486;2024-03-02T07:53:01;26.07;;;22.67;;
12840;SDS011;6487;48.626;12.486;2024-03-02T07:55:34;25.87;;;20.47;;
12840;SDS011;6487;48.626;12.486;2024-03-02T07:58:03;26.40;;;20.43;;
12840;SDS011;6487;48.626;12.486;2024-03-02T08:00:32;28.07;;;21.63;;
12840;SDS011;6487;48.626;12.486;2024-03-02T08:03:01;33.37;;;23.30;;
12840;SDS011;6487;48.626;12.486;2024-03-02T08:05:30;32.13;;;23.30;;
12840;SDS011;6487;48.626;12.486;2024-03-02T08:07:58;31.33;;;22.97;;
12840;SDS011;6487;48.626;12.486;2024-03-02T08:10:28;30.70;;;22.97;;
12840;SDS011;6487;48.626;12.486;2024-03-02T08:13:00;31.67;;;23.23;;
12840;SDS011;6487;48.626;12.486;2024-03-02T08:15:28;32.73;;;22.53;;
12840;SDS011;6487;48.626;12.486;2024-03-02T08:17:57;31.40;;;21.97;;
12840;SDS011;6487;48.626;12.486;2024-03-02T08:20:26;31.73;;;23.00;;
12840;SDS011;6487;48.626;12.486;2024-03-02T08:22:59;34.10;;;23.37;;
12840;SDS011;6487;48.626;12.486;2024-03-02T08:25:29;32.40;;;24.37;;
12840;SDS011;6487;48.626;12.486;2024-03-02T08:27:58;33.77;;;25.27;;
12840;SDS011;6487;48.626;12.486;2024-03-02T08:30:26;35.83;;;25.53;;
12840;SDS011;6487;48.626;12.486;2024-03-02T08:32:55;37.10;;;26.17;;
12840;SDS011;6487;48.626;12.486;2024-03-02T08:35:23;37.87;;;25.93;;
12840;SDS011;6487;48.626;12.486;2024-03-02T08:37:52;37.37;;;26.00;;
12840;SDS011;6487;48.626;12.486;2024-03-02T08:40:20;39.00;;;26.70;;
12840;SDS011;6487;48.626;12.486;2024-03-02T08:42:50;40.53;;;27.83;;
12840;SDS011;6487;48.626;12.486;2024-03-02T08:45:18;37.37;;;25.17;;
12840;SDS011;6487;48.626;12.486;2024-03-02T08:47:48;38.67;;;28.07;;
12840;SDS011;6487;48.626;12.486;2024-03-02T08:50:16;43.03;;;28.57;;
12840;SDS011;6487;48.626;12.486;2024-03-02T08:52:44;38.67;;;26.63;;
12840;SDS011;6487;48.626;12.486;2024-03-02T08:55:13;48.27;;;31.27;;
12840;SDS011;6487;48.626;12.486;2024-03-02T08:57:41;41.40;;;27.57;;
12840;SDS011;6487;48.626;12.486;2024-03-02T09:00:12;42.37;;;28.07;;
12840;SDS011;6487;48.626;12.486;2024-03-02T09:02:41;47.67;;;30.83;;
12840;SDS011;6487;48.626;12.486;2024-03-02T09:05:09;51.30;;;32.60;;
12840;SDS011;6487;48.626;12.486;2024-03-02T09:07:37;48.90;;;32.23;;
12840;SDS011;6487;48.626;12.486;2024-03-02T09:10:07;49.23;;;32.03;;
12840;SDS011;6487;48.626;12.486;2024-03-02T09:12:36;47.23;;;32.43;;
12840;SDS011;6487;48.626;12.486;2024-03-02T09:15:06;52.33;;;33.43;;
12840;SDS011;6487;48.626;12.486;2024-03-02T09:17:37;55.43;;;37.27;;
12840;SDS011;6487;48.626;12.486;2024-03-02T09:20:05;52.50;;;36.27;;
12840;SDS011;6487;48.626;12.486;2024-03-02T09:22:35;55.23;;;34.77;;
12840;SDS011;6487;48.626;12.486;2024-03-02T09:25:04;53.47;;;37.20;;
12840;SDS011;6487;48.626;12.486;2024-03-02T09:27:35;54.17;;;35.20;;
12840;SDS011;6487;48.626;12.486;2024-03-02T09:30:05;58.23;;;40.07;;
12840;SDS011;6487;48.626;12.486;2024-03-02T09:32:38;53.07;;;37.20;;
12840;SDS011;6487;48.626;12.486;2024-03-02T09:35:07;55.23;;;37.00;;
12840;SDS011;6487;48.626;12.486;2024-03-02T09:37:35;51.67;;;34.87;;
12840;SDS011;6487;48.626;12.486;2024-03-02T09:40:05;56.60;;;37.63;;
12840;SDS011;6487;48.626;12.486;2024-03-02T09:42:34;60.77;;;37.13;;
12840;SDS011;6487;48.626;12.486;2024-03-02T09:45:03;54.07;;;35.50;;
12840;SDS011;6487;48.626;12.486;2024-03-02T09:47:33;49.73;;;35.93;;
12840;SDS011;6487;48.626;12.486;2024-03-02T09:50:03;52.73;;;35.60;;
12840;SDS011;6487;48.626;12.486;2024-03-02T09:52:32;53.83;;;37.03;;
12840;SDS011;6487;48.626;12.486;2024-03-02T09:55:01;51.80;;;35.20;;
12840;SDS011;6487;48.626;12.486;2024-03-02T09:57:32;49.13;;;34.30;;
12840;SDS011;6487;48.626;12.486;2024-03-02T10:00:00;54.57;;;35.43;;
12840;SDS011;6487;48.626;12.486;2024-03-02T10:02:29;50.93;;;33.53;;
12840;SDS011;6487;48.626;12.486;2024-03-02T10:04:57;52.83;;;35.17;;
12840;SDS011;6487;48.626;12.486;2024-03-02T10:07:28;51.80;;;35.37;;
12840;SDS011;6487;48.626;12.486;2024-03-02T10:09:56;49.83;;;34.53;;
12840;SDS011;6487;48.626;12.486;2024-03-02T10:12:26;50.87;;;34.97;;
12840;SDS011;6487;48.626;12.486;2024-03-02T10:14:55;48.27;;;35.03;;
12840;SDS011;6487;48.626;12.486;2024-03-02T10:17:34;51.37;;;34.43;;
12840;SDS011;6487;48.626;12.486;2024-03-02T10:22:53;50.43;;;34.70;;
12840;SDS011;6487;48.626;12.486;2024-03-02T10:25:29;49.07;;;35.53;;
12840;SDS011;6487;48.626;12.486;2024-03-02T10:28:16;47.73;;;33.57;;
12840;SDS011;6487;48.626;12.486;2024-03-02T10:30:47;53.43;;;36.13;;
12840;SDS011;6487;48.626;12.486;2024-03-02T10:33:17;47.43;;;32.53;;
12840;SDS011;6487;48.626;12.486;2024-03-02T10:35:45;47.27;;;34.30;;
12840;SDS011;6487;48.626;12.486;2024-03-02T10:38:18;44.77;;;32.40;;
12840;SDS011;6487;48.626;12.486;2024-03-02T10:40:47;44.43;;;31.77;;
12840;SDS011;6487;48.626;12.486;2024-03-02T10:43:15;48.40;;;33.93;;
12840;SDS011;6487;48.626;12.486;2024-03-02T10:45:46;46.40;;;33.80;;
12840;SDS011;6487;48.626;12.486;2024-03-02T10:48:17;47.27;;;34.67;;
12840;SDS011;6487;48.626;12.486;2024-03-02T10:50:48;43.40;;;31.60;;
12840;SDS011;6487;48.626;12.486;2024-03-02T10:53:18;50.13;;;33.10;;
12840;SDS011;6487;48.626;12.486;2024-03-02T10:55:47;47.43;;;33.23;;
12840;SDS011;6487;48.626;12.486;2024-03-02T10:58:31;45.60;;;33.40;;
12840;SDS011;6487;48.626;12.486;2024-03-02T11:01:02;47.87;;;34.03;;
12840;SDS011;6487;48.626;12.486;2024-03-02T11:03:33;49.20;;;35.23;;
12840;SDS011;6487;48.626;12.486;2024-03-02T11:06:04;44.47;;;33.70;;
12840;SDS011;6487;48.626;12.486;2024-03-02T11:08:38;44.67;;;32.50;;
12840;SDS011;6487;48.626;12.486;2024-03-02T11:11:11;45.23;;;31.77;;
12840;SDS011;6487;48.626;12.486;2024-03-02T11:13:46;44.57;;;32.40;;
12840;SDS011;6487;48.626;12.486;2024-03-02T11:16:20;45.27;;;33.27;;
12840;SDS011;6487;48.626;12.486;2024-03-02T11:19:02;44.83;;;33.00;;
12840;SDS011;6487;48.626;12.486;2024-03-02T11:21:32;45.23;;;32.77;;
12840;SDS011;6487;48.626;12.486;2024-03-02T11:27:05;45.73;;;31.53;;
12840;SDS011;6487;48.626;12.486;2024-03-02T11:29:44;43.50;;;33.27;;
12840;SDS011;6487;48.626;12.486;2024-03-02T11:32:14;46.17;;;33.17;;
12840;SDS011;6487;48.626;12.486;2024-03-02T11:34:48;44.07;;;31.33;;
12840;SDS011;6487;48.626;12.486;2024-03-02T11:37:18;46.53;;;31.80;;
12840;SDS011;6487;48.626;12.486;2024-03-02T11:39:50;44.03;;;31.73;;
12840;SDS011;6487;48.626;12.486;2024-03-02T11:42:18;42.03;;;31.53;;
12840;SDS011;6487;48.626;12.486;2024-03-02T11:44:47;43.37;;;31.93;;
12840;SDS011;6487;48.626;12.486;2024-03-02T11:47:17;40.07;;;30.53;;
12840;SDS011;6487;48.626;12.486;2024-03-02T11:49:46;42.43;;;32.77;;
12840;SDS011;6487;48.626;12.486;2024-03-02T11:52:18;44.00;;;33.37;;
12840;SDS011;6487;48.626;12.486;2024-03-02T11:54:47;45.10;;;31.80;;
12840;SDS011;6487;48.626;12.486;2024-03-02T11:57:18;36.67;;;28.17;;
12840;SDS011;6487;48.626;12.486;2024-03-02T11:59:49;41.30;;;29.90;;
12840;SDS011;6487;48.626;12.486;2024-03-02T12:02:18;38.97;;;29.27;;
12840;SDS011;6487;48.626;12.486;2024-03-02T12:04:48;41.17;;;30.83;;
12840;SDS011;6487;48.626;12.486;2024-03-02T12:07:18;39.80;;;29.77;;
12840;SDS011;6487;48.626;12.486;2024-03-02T12:09:50;38.67;;;28.33;;
12840;SDS011;6487;48.626;12.486;2024-03-02T12:12:28;38.80;;;30.70;;
12840;SDS011;6487;48.626;12.486;2024-03-02T12:14:57;41.93;;;29.40;;
12840;SDS011;6487;48.626;12.486;2024-03-02T12:17:27;39.03;;;28.80;;
12840;SDS011;6487;48.626;12.486;2024-03-02T12:19:57;36.37;;;28.03;;
12840;SDS011;6487;48.626;12.486;2024-03-02T12:22:25;39.77;;;28.93;;
12840;SDS011;6487;48.626;12.486;2024-03-02T12:24:55;40.43;;;29.13;;
12840;SDS011;6487;48.626;12.486;2024-03-02T12:27:24;37.00;;;30.67;;
12840;SDS011;6487;48.626;12.486;2024-03-02T12:29:52;37.63;;;28.47;;
12840;SDS011;6487;48.626;12.486;2024-03-02T12:32:21;40.20;;;30.27;;
12840;SDS011;6487;48.626;12.486;2024-03-02T12:34:50;36.70;;;28.23;;
12840;SDS011;6487;48.626;12.486;2024-03-02T12:37:19;41.47;;;32.93;;
12840;SDS011;6487;48.626;12.486;2024-03-02T12:39:47;39.87;;;29.50;;
12840;SDS011;6487;48.626;12.486;2024-03-02T12:42:17;34.00;;;27.77;;
12840;SDS011;6487;48.626;12.486;2024-03-02T12:44:46;37.90;;;28.67;;
12840;SDS011;6487;48.626;12.486;2024-03-02T12:47:14;33.47;;;26.37;;
12840;SDS011;6487;48.626;12.486;2024-03-02T12:49:43;34.07;;;27.00;;
12840;SDS011;6487;48.626;12.486;2024-03-02T12:52:12;35.83;;;27.53;;
12840;SDS011;6487;48.626;12.486;2024-03-02T12:54:41;33.93;;;27.30;;
12840;SDS011;6487;48.626;12.486;2024-03-02T12:57:09;31.83;;;25.77;;
12840;SDS011;6487;48.626;12.486;2024-03-02T12:59:39;31.77;;;25.07;;
12840;SDS011;6487;48.626;12.486;2024-03-02T13:02:16;35.47;;;27.93;;
12840;SDS011;6487;48.626;12.486;2024-03-02T13:04:52;34.67;;;27.53;;
12840;SDS011;6487;48.626;12.486;2024-03-02T13:07:22;32.83;;;26.33;;
12840;SDS011;6487;48.626;12.486;2024-03-02T13:09:51;34.67;;;27.83;;
12840;SDS011;6487;48.626;12.486;2024-03-02T13:12:22;31.40;;;27.50;;
12840;SDS011;6487;48.626;12.486;2024-03-02T13:14:53;34.50;;;27.20;;
12840;SDS011;6487;48.626;12.486;2024-03-02T13:17:21;31.30;;;25.10;;
12840;SDS011;6487;48.626;12.486;2024-03-02T13:19:51;30.10;;;25.10;;
12840;SDS011;6487;48.626;12.486;2024-03-02T13:22:20;31.70;;;24.13;;
12840;SDS011;6487;48.626;12.486;2024-03-02T13:24:49;28.40;;;23.97;;
12840;SDS011;6487;48.626;12.486;2024-03-02T13:27:18;26.50;;;22.63;;
12840;SDS011;6487;48.626;12.486;2024-03-02T13:29:48;28.07;;;24.10;;
12840;SDS011;6487;48.626;12.486;2024-03-02T13:32:18;27.57;;;22.93;;
12840;SDS011;6487;48.626;12.486;2024-03-02T13:34:50;27.43;;;24.17;;
12840;SDS011;6487;48.626;12.486;2024-03-02T13:37:19;28.83;;;23.67;;
12840;SDS011;6487;48.626;12.486;2024-03-02T13:39:48;29.57;;;24.57;;
12840;SDS011;6487;48.626;12.486;2024-03-02T13:42:17;27.33;;;23.27;;
12840;SDS011;6487;48.626;12.486;2024-03-02T13:44:46;28.23;;;23.10;;
12840;SDS011;6487;48.626;12.486;2024-03-02T13:47:19;27.37;;;21.87;;
12840;SDS011;6487;48.626;12.486;2024-03-02T13:49:47;24.50;;;21.90;;
12840;SDS011;6487;48.626;12.486;2024-03-02T13:52:16;25.77;;;22.97;;
12840;SDS011;6487;48.626;12.486;2024-03-02T13:54:45;30.07;;;24.90;;
12840;SDS011;6487;48.626;12.486;2024-03-02T13:57:15;25.97;;;22.83;;
12840;SDS011;6487;48.626;12.486;2024-03-02T13:59:49;27.07;;;23.07;;
12840;SDS011;6487;48.626;12.486;2024-03-02T14:02:21;27.50;;;23.27;;
12840;SDS011;6487;48.626;12.486;2024-03-02T14:04:49;26.43;;;21.93;;
12840;SDS011;6487;48.626;12.486;2024-03-02T14:07:18;23.20;;;20.37;;
12840;SDS011;6487;48.626;12.486;2024-03-02T14:09:46;26.73;;;22.10;;
12840;SDS011;6487;48.626;12.486;2024-03-02T14:12:14;25.50;;;21.50;;
12840;SDS011;6487;48.626;12.486;2024-03-02T14:14:43;26.73;;;22.47;;
12840;SDS011;6487;48.626;12.486;2024-03-02T14:17:11;26.23;;;23.40;;
12840;SDS011;6487;48.626;12.486;2024-03-02T14:19:43;26.07;;;22.53;;
12840;SDS011;6487;48.626;12.486;2024-03-02T14:22:12;25.27;;;21.43;;
12840;SDS011;6487;48.626;12.486;2024-03-02T14:24:43;28.60;;;22.27;;
12840;SDS011;6487;48.626;12.486;2024-03-02T14:27:12;24.27;;;21.40;;
12840;SDS011;6487;48.626;12.486;2024-03-02T14:29:58;26.27;;;22.37;;
12840;SDS011;6487;48.626;12.486;2024-03-02T14:32:27;26.43;;;22.80;;
12840;SDS011;6487;48.626;12.486;2024-03-02T14:34:56;27.13;;;23.20;;
12840;SDS011;6487;48.626;12.486;2024-03-02T14:37:25;25.63;;;21.80;;
12840;SDS011;6487;48.626;12.486;2024-03-02T14:39:54;27.97;;;22.47;;
12840;SDS011;6487;48.626;12.486;2024-03-02T14:42:23;27.27;;;21.70;;